Time;durP1;ratioP1;P1;durP2;ratioP2;P2;SDS_P1;SDS_P2;PMS_P1;PMS_P2;Temp;Humidity;BMP_temperature;BMP_pressure;BME280_temperature;BME280_humidity;BME280_pressure;Samples;Min_cycle;Max_cycle;Signal;HPM_P1;HPM_P2
2022/11/17 00:01:07;;;;;;;;;;;13.20;99.90;;;;;;5073675;28;20281;-23
2022/11/17 00:03:33;;;;;;;;;;;13.20;99.90;;;;;;5073763;28;19912;-23
2022/11/17 00:06:05;;;;;;;;;;;13.10;99.90;;;;;;5073879;28;20318;-22
2022/11/17 00:08:31;;;;;;;;;;;13.20;99.90;;;;;;5073071;28;19908;-23
2022/11/17 00:11:00;;;;;;;;;;;13.20;99.90;;;;;;5073712;28;19931;-23
2022/11/17 00:16:16;;;;;;;;;;;13.10;99.90;;;;;;5073233;28;19934;-25
2022/11/17 00:21:27;;;;;;;;;;;13.10;99.90;;;;;;5073140;28;19958;-22
2022/11/17 00:23:53;;;;;;;;;;;13.10;99.90;;;;;;5072662;28;20389;-28
2022/11/17 00:26:20;;;;;;;;;;;13.10;99.90;;;;;;5073097;28;19912;-27
2022/11/17 00:28:46;;;;;;;;;;;13.10;99.90;;;;;;5072689;28;19908;-30
2022/11/17 00:34:06;;;;;;;;;;;13.10;99.90;;;;;;5073116;28;19923;-21
2022/11/17 00:36:33;;;;;;;;;;;13.10;99.90;;;;;;5073078;28;19914;-21
2022/11/17 00:38:58;;;;;;;;;;;13.10;99.90;;;;;;5072262;28;19931;-22
2022/11/17 00:41:24;;;;;;;;;;;13.10;99.90;;;;;;5073042;28;20394;-23
2022/11/17 00:43:49;;;;;;;;;;;13.10;99.90;;;;;;5073226;28;20267;-24
2022/11/17 00:46:15;;;;;;;;;;;13.10;99.90;;;;;;5072911;28;19920;-24
2022/11/17 00:48:40;;;;;;;;;;;13.10;99.90;;;;;;5054473;28;19945;-21
2022/11/17 00:51:05;;;;;;;;;;;13.10;99.90;;;;;;5072960;28;19909;-21
2022/11/17 00:53:31;;;;;;;;;;;13.10;99.90;;;;;;5073161;28;19913;-22
2022/11/17 00:55:57;;;;;;;;;;;13.10;99.90;;;;;;5073018;28;19916;-21
2022/11/17 00:58:22;;;;;;;;;;;13.10;99.90;;;;;;5072439;28;19908;-21
2022/11/17 01:00:48;;;;;;;;;;;13.10;99.90;;;;;;5072289;28;19919;-25
2022/11/17 01:03:14;;;;;;;;;;;13.10;99.90;;;;;;5072487;28;19909;-26
2022/11/17 01:05:39;;;;;;;;;;;13.10;99.90;;;;;;5072140;28;19916;-24
2022/11/17 01:08:05;;;;;;;;;;;13.10;99.90;;;;;;5072066;28;20014;-21
2022/11/17 01:10:33;;;;;;;;;;;13.10;99.90;;;;;;5072403;28;19919;-22
2022/11/17 01:12:58;;;;;;;;;;;13.10;99.90;;;;;;5072070;28;19920;-22
2022/11/17 01:15:24;;;;;;;;;;;13.10;99.90;;;;;;5072447;28;19908;-25
2022/11/17 01:17:49;;;;;;;;;;;13.10;99.90;;;;;;5071694;28;20179;-22
2022/11/17 01:20:15;;;;;;;;;;;13.10;99.90;;;;;;5053585;28;19909;-20
2022/11/17 01:22:40;;;;;;;;;;;13.10;99.90;;;;;;5071944;28;19912;-24
2022/11/17 01:25:06;;;;;;;;;;;13.10;99.90;;;;;;5071801;28;19913;-23
2022/11/17 01:27:32;;;;;;;;;;;13.10;99.90;;;;;;5071967;28;19955;-23
2022/11/17 01:29:57;;;;;;;;;;;13.10;99.90;;;;;;5053466;28;19919;-24
2022/11/17 01:32:23;;;;;;;;;;;13.10;99.90;;;;;;5071612;28;19916;-26
2022/11/17 01:34:48;;;;;;;;;;;13.10;99.90;;;;;;5071491;28;19923;-23
2022/11/17 01:37:20;;;;;;;;;;;13.10;99.90;;;;;;5071328;28;20350;-22
2022/11/17 01:39:46;;;;;;;;;;;13.10;99.90;;;;;;5071271;28;19908;-20
2022/11/17 01:42:13;;;;;;;;;;;13.00;99.90;;;;;;5072146;28;19958;-21
2022/11/17 01:44:47;;;;;;;;;;;13.00;99.90;;;;;;5072269;28;20284;-23
2022/11/17 01:47:18;;;;;;;;;;;13.00;99.90;;;;;;5071737;28;19912;-23
2022/11/17 01:49:44;;;;;;;;;;;13.00;99.90;;;;;;5071380;28;19916;-23
2022/11/17 01:52:10;;;;;;;;;;;13.10;99.90;;;;;;5072350;28;20332;-23
2022/11/17 01:54:39;;;;;;;;;;;13.10;99.90;;;;;;5071522;28;20392;-28
2022/11/17 01:57:11;;;;;;;;;;;13.10;99.90;;;;;;5071639;28;19912;-23
2022/11/17 01:59:39;;;;;;;;;;;13.10;99.90;;;;;;5072332;28;20293;-25
2022/11/17 02:02:05;;;;;;;;;;;13.10;99.90;;;;;;5071387;28;19923;-28
2022/11/17 02:04:40;;;;;;;;;;;13.10;99.90;;;;;;5071509;28;19915;-25
2022/11/17 02:07:16;;;;;;;;;;;13.00;99.90;;;;;;5071982;28;19950;-23
2022/11/17 02:09:42;;;;;;;;;;;13.00;99.90;;;;;;5071227;28;20266;-22
2022/11/17 02:12:09;;;;;;;;;;;13.00;99.90;;;;;;5071890;28;20286;-23
2022/11/17 02:14:34;;;;;;;;;;;13.00;99.90;;;;;;5071786;28;19916;-22
2022/11/17 02:17:01;;;;;;;;;;;13.00;99.90;;;;;;5071620;28;20424;-24
2022/11/17 02:19:30;;;;;;;;;;;13.00;99.90;;;;;;5071033;28;19909;-23
2022/11/17 02:22:08;;;;;;;;;;;13.00;99.90;;;;;;5053166;28;19912;-23
2022/11/17 02:24:52;;;;;;;;;;;13.00;99.90;;;;;;5071911;28;20389;-23
2022/11/17 02:27:21;;;;;;;;;;;13.00;99.90;;;;;;5071547;28;19915;-23
2022/11/17 02:30:12;;;;;;;;;;;13.00;99.90;;;;;;5071018;28;19908;-23
2022/11/17 02:32:45;;;;;;;;;;;13.00;99.90;;;;;;5068123;28;20003;-25
2022/11/17 02:35:17;;;;;;;;;;;13.00;99.90;;;;;;5071372;28;20086;-27
2022/11/17 02:37:48;;;;;;;;;;;13.00;99.90;;;;;;5071702;28;20259;-23
2022/11/17 02:40:19;;;;;;;;;;;13.00;99.90;;;;;;5071027;28;20358;-23
2022/11/17 02:45:41;;;;;;;;;;;13.00;99.90;;;;;;5071779;28;19966;-24
2022/11/17 02:48:10;;;;;;;;;;;13.00;99.90;;;;;;5072901;28;20013;-22
2022/11/17 02:50:37;;;;;;;;;;;13.00;99.90;;;;;;5075123;28;20278;-24
2022/11/17 02:53:02;;;;;;;;;;;13.00;99.90;;;;;;5074641;28;19995;-23
2022/11/17 02:55:32;;;;;;;;;;;13.00;99.90;;;;;;5074790;28;19908;-26
2022/11/17 02:57:57;;;;;;;;;;;13.00;99.90;;;;;;5074147;28;20374;-23
2022/11/17 03:00:23;;;;;;;;;;;13.00;99.90;;;;;;5074407;28;20008;-24
2022/11/17 03:02:57;;;;;;;;;;;13.00;99.90;;;;;;5074434;28;19916;-23
2022/11/17 03:05:41;;;;;;;;;;;13.00;99.90;;;;;;5074584;28;19916;-22
2022/11/17 03:08:07;;;;;;;;;;;13.00;99.90;;;;;;5073814;28;19913;-23
2022/11/17 03:10:40;;;;;;;;;;;13.00;99.90;;;;;;5074975;28;19912;-23
2022/11/17 03:13:23;;;;;;;;;;;13.00;99.90;;;;;;5074999;28;19908;-23
2022/11/17 03:16:08;;;;;;;;;;;13.00;99.90;;;;;;5075417;28;20338;-26
2022/11/17 03:18:51;;;;;;;;;;;13.00;99.90;;;;;;5056082;28;20018;-23
2022/11/17 03:21:36;;;;;;;;;;;13.00;99.90;;;;;;5056320;28;19916;-26
2022/11/17 03:24:05;;;;;;;;;;;13.00;99.90;;;;;;5074631;28;19958;-26
2022/11/17 03:26:37;;;;;;;;;;;13.00;99.90;;;;;;5074249;28;19908;-22
2022/11/17 03:29:04;;;;;;;;;;;13.00;99.90;;;;;;5073812;28;20042;-23
2022/11/17 03:31:31;;;;;;;;;;;13.00;99.90;;;;;;5073713;28;20434;-24
2022/11/17 03:33:56;;;;;;;;;;;12.90;99.90;;;;;;5074116;28;19912;-25
2022/11/17 03:36:25;;;;;;;;;;;12.90;99.90;;;;;;5074350;28;19935;-23
2022/11/17 03:38:55;;;;;;;;;;;13.00;99.90;;;;;;5073480;28;20377;-28
2022/11/17 03:41:21;;;;;;;;;;;13.00;99.90;;;;;;5073982;28;19912;-23
2022/11/17 03:43:50;;;;;;;;;;;13.00;99.90;;;;;;5073675;28;19916;-23
2022/11/17 03:46:17;;;;;;;;;;;13.00;99.90;;;;;;5073594;28;19913;-23
2022/11/17 03:48:47;;;;;;;;;;;13.00;99.90;;;;;;5073201;28;20386;-28
2022/11/17 03:51:15;;;;;;;;;;;12.90;99.90;;;;;;5073677;28;19930;-24
2022/11/17 03:53:40;;;;;;;;;;;12.90;99.90;;;;;;5073943;28;20378;-21
2022/11/17 03:56:08;;;;;;;;;;;12.90;99.90;;;;;;5073413;28;19975;-26
2022/11/17 03:58:36;;;;;;;;;;;13.00;99.90;;;;;;5072539;28;20429;-27
2022/11/17 04:01:02;;;;;;;;;;;13.00;99.90;;;;;;5073593;28;20346;-31
2022/11/17 04:03:32;;;;;;;;;;;13.00;99.90;;;;;;5073643;28;19908;-26
2022/11/17 04:05:58;;;;;;;;;;;13.00;99.90;;;;;;5073426;28;20381;-23
2022/11/17 04:08:28;;;;;;;;;;;12.90;99.90;;;;;;5072956;28;20306;-23
2022/11/17 04:16:22;;;;;;;;;;;13.00;99.90;;;;;;5073302;28;19923;-21
2022/11/17 04:18:48;;;;;;;;;;;12.90;99.90;;;;;;5072599;28;19909;-23
2022/11/17 04:21:13;;;;;;;;;;;12.90;99.90;;;;;;5073168;28;20254;-23
2022/11/17 04:23:39;;;;;;;;;;;12.90;99.90;;;;;;5072952;28;19915;-23
2022/11/17 04:28:49;;;;;;;;;;;12.90;99.90;;;;;;5072480;28;19915;-31
2022/11/17 04:31:21;;;;;;;;;;;12.90;99.90;;;;;;5072878;28;20015;-31
2022/11/17 04:33:49;;;;;;;;;;;12.90;99.90;;;;;;5072659;28;19970;-24
2022/11/17 04:36:24;;;;;;;;;;;12.90;99.90;;;;;;5072868;28;19934;-21
2022/11/17 04:38:50;;;;;;;;;;;13.00;99.90;;;;;;5054251;28;19916;-22
2022/11/17 04:44:01;;;;;;;;;;;12.90;99.90;;;;;;5072878;28;19915;-24
2022/11/17 04:46:28;;;;;;;;;;;12.90;99.90;;;;;;5072199;28;19909;-24
2022/11/17 04:48:54;;;;;;;;;;;13.00;99.90;;;;;;5072192;28;20011;-23
2022/11/17 04:51:20;;;;;;;;;;;12.90;99.90;;;;;;5072646;28;19987;-23
2022/11/17 04:53:45;;;;;;;;;;;12.90;99.90;;;;;;5072741;28;19916;-23
2022/11/17 04:56:12;;;;;;;;;;;12.90;99.90;;;;;;5072392;28;19908;-26
2022/11/17 04:58:37;;;;;;;;;;;12.90;99.90;;;;;;5071787;28;19915;-23
2022/11/17 05:01:12;;;;;;;;;;;12.90;99.90;;;;;;5072193;28;20019;-23
2022/11/17 05:03:38;;;;;;;;;;;12.90;99.90;;;;;;5072565;28;19909;-23
2022/11/17 05:06:04;;;;;;;;;;;12.90;99.90;;;;;;5072351;28;19920;-23
2022/11/17 05:08:29;;;;;;;;;;;12.90;99.90;;;;;;5071689;28;19908;-26
2022/11/17 05:13:42;;;;;;;;;;;12.90;99.90;;;;;;5072289;28;19939;-23
2022/11/17 05:18:52;;;;;;;;;;;12.90;99.90;;;;;;5072044;28;19934;-22
2022/11/17 05:21:17;;;;;;;;;;;12.90;99.90;;;;;;5072231;28;20370;-25
2022/11/17 05:23:55;;;;;;;;;;;12.90;99.90;;;;;;5072240;28;20404;-22
2022/11/17 05:26:30;;;;;;;;;;;12.90;99.90;;;;;;5072039;28;19920;-27
2022/11/17 05:28:57;;;;;;;;;;;12.90;99.90;;;;;;5071676;28;19963;-28
2022/11/17 05:31:24;;;;;;;;;;;12.90;99.90;;;;;;5071914;28;20007;-21
2022/11/17 05:33:49;;;;;;;;;;;12.90;99.90;;;;;;5072230;28;20355;-23
2022/11/17 05:36:15;;;;;;;;;;;12.90;99.90;;;;;;5072118;28;19940;-23
2022/11/17 05:38:41;;;;;;;;;;;12.90;99.90;;;;;;5071146;28;20007;-27
2022/11/17 05:41:06;;;;;;;;;;;12.90;99.90;;;;;;5072124;28;19915;-25
2022/11/17 05:43:32;;;;;;;;;;;12.90;99.90;;;;;;5071896;28;19995;-21
2022/11/17 05:45:57;;;;;;;;;;;12.90;99.90;;;;;;5071799;28;19947;-23
2022/11/17 05:48:23;;;;;;;;;;;12.90;99.90;;;;;;5071802;28;19908;-23
2022/11/17 05:50:52;;;;;;;;;;;12.80;99.90;;;;;;5071643;28;19981;-24
2022/11/17 05:53:18;;;;;;;;;;;12.80;99.90;;;;;;5072036;28;19948;-23
2022/11/17 05:55:43;;;;;;;;;;;12.80;99.90;;;;;;5072259;28;20424;-22
2022/11/17 05:58:12;;;;;;;;;;;12.80;99.90;;;;;;5071080;28;19999;-23
2022/11/17 06:00:38;;;;;;;;;;;12.80;99.90;;;;;;5071749;28;19913;-24
2022/11/17 06:03:07;;;;;;;;;;;12.80;99.90;;;;;;5071771;28;19908;-24
2022/11/17 06:05:32;;;;;;;;;;;12.90;99.90;;;;;;5071815;28;19916;-27
2022/11/17 06:07:58;;;;;;;;;;;12.80;99.90;;;;;;5071362;28;19920;-23
2022/11/17 06:10:24;;;;;;;;;;;12.80;99.90;;;;;;5071800;28;19916;-24
2022/11/17 06:12:49;;;;;;;;;;;12.80;99.90;;;;;;5053281;28;20259;-27
2022/11/17 06:15:15;;;;;;;;;;;12.90;99.90;;;;;;5071453;28;20318;-23
2022/11/17 06:17:46;;;;;;;;;;;12.80;99.90;;;;;;5071460;28;19916;-24
2022/11/17 06:20:15;;;;;;;;;;;12.80;99.90;;;;;;5071203;28;19920;-29
2022/11/17 06:22:41;;;;;;;;;;;12.80;99.90;;;;;;5073290;28;19916;-23
2022/11/17 06:25:07;;;;;;;;;;;12.80;99.90;;;;;;5057363;28;19908;-23
2022/11/17 06:27:33;;;;;;;;;;;12.80;99.90;;;;;;5075311;28;20005;-25
2022/11/17 06:30:00;;;;;;;;;;;12.80;99.90;;;;;;5057056;28;20389;-28
2022/11/17 06:32:26;;;;;;;;;;;12.80;99.90;;;;;;5075233;28;19971;-30
2022/11/17 06:34:51;;;;;;;;;;;12.80;99.90;;;;;;5075099;28;19956;-30
2022/11/17 06:37:17;;;;;;;;;;;12.80;99.90;;;;;;5075173;28;19908;-24
2022/11/17 06:39:42;;;;;;;;;;;12.80;99.90;;;;;;5074640;28;20330;-21
2022/11/17 06:42:08;;;;;;;;;;;12.80;99.90;;;;;;5074924;28;19909;-21
2022/11/17 06:44:33;;;;;;;;;;;12.80;99.90;;;;;;5075061;28;19976;-22
2022/11/17 06:46:59;;;;;;;;;;;12.80;99.90;;;;;;5075345;28;19912;-23
2022/11/17 06:49:24;;;;;;;;;;;12.80;99.90;;;;;;5074609;28;20286;-23
2022/11/17 06:51:50;;;;;;;;;;;12.80;99.90;;;;;;5075487;28;20431;-23
2022/11/17 06:54:15;;;;;;;;;;;12.80;99.90;;;;;;5075784;28;19920;-23
2022/11/17 06:56:41;;;;;;;;;;;12.80;99.90;;;;;;5075316;28;19909;-23
2022/11/17 06:59:06;;;;;;;;;;;12.80;99.90;;;;;;5076043;28;20240;-22
2022/11/17 07:01:32;;;;;;;;;;;12.80;99.90;;;;;;5075842;28;19918;-23
2022/11/17 07:03:58;;;;;;;;;;;12.80;99.90;;;;;;5076075;28;20377;-23
2022/11/17 07:06:24;;;;;;;;;;;12.80;99.90;;;;;;5076262;28;19912;-23
2022/11/17 07:08:50;;;;;;;;;;;12.80;99.90;;;;;;5075662;28;19921;-25
2022/11/17 07:11:16;;;;;;;;;;;12.80;99.90;;;;;;5076692;28;20354;-29
2022/11/17 07:13:42;;;;;;;;;;;12.70;99.90;;;;;;5075997;28;19940;-23
2022/11/17 07:16:11;;;;;;;;;;;12.70;99.90;;;;;;5076227;28;19908;-23
2022/11/17 07:18:37;;;;;;;;;;;12.70;99.90;;;;;;5074802;28;19920;-24
2022/11/17 07:21:06;;;;;;;;;;;12.70;99.90;;;;;;5058268;28;19962;-23
2022/11/17 07:23:31;;;;;;;;;;;12.70;99.90;;;;;;5077235;28;20361;-23
2022/11/17 07:25:57;;;;;;;;;;;12.70;99.90;;;;;;5076759;28;19947;-24
2022/11/17 07:28:23;;;;;;;;;;;12.70;99.90;;;;;;5075278;28;19909;-23
2022/11/17 07:30:49;;;;;;;;;;;12.70;99.90;;;;;;5076316;28;19927;-21
2022/11/17 07:33:14;;;;;;;;;;;12.70;99.90;;;;;;5074683;28;20401;-23
2022/11/17 07:35:40;;;;;;;;;;;12.70;99.90;;;;;;5074973;28;20398;-23
2022/11/17 07:38:06;;;;;;;;;;;12.70;99.90;;;;;;5075518;28;19951;-21
2022/11/17 07:40:31;;;;;;;;;;;12.70;99.90;;;;;;5075943;28;20317;-23
2022/11/17 07:42:57;;;;;;;;;;;12.70;99.90;;;;;;5075838;28;19919;-26
2022/11/17 07:45:23;;;;;;;;;;;12.70;99.90;;;;;;5056884;28;19958;-29
2022/11/17 07:47:55;;;;;;;;;;;12.70;99.90;;;;;;5074942;28;19913;-24
2022/11/17 07:50:22;;;;;;;;;;;12.70;99.90;;;;;;5056657;28;19909;-21
2022/11/17 07:52:51;;;;;;;;;;;12.70;99.90;;;;;;5075932;28;19934;-21
2022/11/17 07:55:17;;;;;;;;;;;12.70;99.90;;;;;;5074968;28;19912;-30
2022/11/17 07:57:42;;;;;;;;;;;12.70;99.90;;;;;;5057331;28;19918;-26
2022/11/17 08:00:09;;;;;;;;;;;12.70;99.90;;;;;;5075182;28;19913;-23
2022/11/17 08:02:35;;;;;;;;;;;12.70;99.90;;;;;;5075484;28;19932;-22
2022/11/17 08:05:00;;;;;;;;;;;12.70;99.90;;;;;;5057686;28;19913;-22
2022/11/17 08:07:26;;;;;;;;;;;12.70;99.90;;;;;;5074886;28;19909;-23
2022/11/17 08:09:51;;;;;;;;;;;12.70;99.90;;;;;;5074234;28;20386;-23
2022/11/17 08:12:17;;;;;;;;;;;12.70;99.90;;;;;;5074316;28;19909;-23
2022/11/17 08:14:43;;;;;;;;;;;12.70;99.90;;;;;;5073749;28;19996;-23
2022/11/17 08:17:08;;;;;;;;;;;12.70;99.90;;;;;;5056929;28;19908;-21
2022/11/17 08:19:34;;;;;;;;;;;12.70;99.90;;;;;;5074292;28;20331;-22
2022/11/17 08:21:59;;;;;;;;;;;12.70;99.90;;;;;;5075319;28;19930;-21
2022/11/17 08:24:27;;;;;;;;;;;12.70;99.90;;;;;;5074717;28;19908;-23
2022/11/17 08:26:53;;;;;;;;;;;12.70;99.90;;;;;;5074600;28;19913;-22
2022/11/17 08:29:18;;;;;;;;;;;12.70;99.90;;;;;;5073979;28;19909;-23
2022/11/17 08:31:45;;;;;;;;;;;12.70;99.90;;;;;;5074626;28;19917;-23
2022/11/17 08:34:11;;;;;;;;;;;12.70;99.90;;;;;;5074529;28;20494;-24
2022/11/17 08:36:37;;;;;;;;;;;12.70;99.90;;;;;;5075151;28;19939;-23
2022/11/17 08:39:03;;;;;;;;;;;12.70;99.90;;;;;;5073015;28;19912;-31
2022/11/17 08:41:28;;;;;;;;;;;12.70;99.90;;;;;;5074092;28;19909;-23
2022/11/17 08:43:54;;;;;;;;;;;12.70;99.90;;;;;;5073602;28;19908;-23
2022/11/17 08:46:20;;;;;;;;;;;12.70;99.90;;;;;;5074233;28;19909;-22
2022/11/17 08:48:45;;;;;;;;;;;12.70;99.90;;;;;;5072920;28;20030;-23
2022/11/17 08:51:11;;;;;;;;;;;12.70;99.90;;;;;;5074444;28;19913;-23
2022/11/17 08:53:38;;;;;;;;;;;12.70;99.90;;;;;;5055686;28;20289;-23
2022/11/17 08:56:10;;;;;;;;;;;12.70;99.90;;;;;;5055592;28;19920;-24
2022/11/17 08:58:39;;;;;;;;;;;12.70;99.90;;;;;;5073652;28;20011;-23
2022/11/17 09:01:06;;;;;;;;;;;12.70;99.90;;;;;;5074504;28;19913;-23
2022/11/17 09:03:33;;;;;;;;;;;12.70;99.90;;;;;;5074488;28;19966;-23
2022/11/17 09:06:00;;;;;;;;;;;12.70;99.90;;;;;;5073625;28;19909;-23
2022/11/17 09:08:26;;;;;;;;;;;12.80;99.90;;;;;;5073411;28;19951;-23
2022/11/17 09:10:52;;;;;;;;;;;12.80;99.90;;;;;;5074001;28;19912;-23
2022/11/17 09:13:17;;;;;;;;;;;12.70;99.90;;;;;;5073817;28;19912;-23
2022/11/17 09:15:43;;;;;;;;;;;12.80;99.90;;;;;;5072934;28;19943;-23
2022/11/17 09:18:09;;;;;;;;;;;12.80;99.90;;;;;;5073589;28;20270;-23
2022/11/17 09:20:35;;;;;;;;;;;12.80;99.90;;;;;;5056553;28;20374;-25
2022/11/17 09:23:01;;;;;;;;;;;12.80;99.90;;;;;;5074741;28;19909;-23
2022/11/17 09:25:28;;;;;;;;;;;12.80;99.90;;;;;;5073986;28;20400;-29
2022/11/17 09:27:53;;;;;;;;;;;12.80;99.90;;;;;;5073053;28;19913;-23
2022/11/17 09:30:21;;;;;;;;;;;12.70;99.90;;;;;;5073727;28;19955;-23
2022/11/17 09:32:47;;;;;;;;;;;12.80;99.90;;;;;;5074471;28;19930;-23
2022/11/17 09:35:13;;;;;;;;;;;12.70;99.90;;;;;;5073666;28;19923;-23
2022/11/17 09:37:38;;;;;;;;;;;12.80;99.90;;;;;;5074139;28;19908;-23
2022/11/17 09:40:04;;;;;;;;;;;12.70;99.90;;;;;;5074899;28;20405;-22
2022/11/17 09:42:36;;;;;;;;;;;12.70;99.90;;;;;;5074198;28;19965;-23
2022/11/17 09:45:06;;;;;;;;;;;12.80;99.90;;;;;;5075178;28;19908;-23
2022/11/17 09:47:31;;;;;;;;;;;12.80;99.90;;;;;;5074774;28;19954;-23
2022/11/17 09:50:16;;;;;;;;;;;12.80;99.90;;;;;;5074495;28;19964;-23
2022/11/17 09:52:53;;;;;;;;;;;12.80;99.90;;;;;;5072195;28;20000;-28
2022/11/17 09:55:22;;;;;;;;;;;12.80;99.90;;;;;;5073426;28;19952;-22
2022/11/17 09:57:50;;;;;;;;;;;12.80;99.90;;;;;;5073933;28;20293;-23
2022/11/17 10:00:20;;;;;;;;;;;12.80;99.90;;;;;;5073911;28;19908;-22
2022/11/17 10:02:47;;;;;;;;;;;12.80;99.90;;;;;;5054949;28;19961;-23
2022/11/17 10:05:19;;;;;;;;;;;12.80;99.90;;;;;;5074542;28;19982;-23
2022/11/17 10:07:46;;;;;;;;;;;12.80;99.90;;;;;;5074873;28;19916;-21
2022/11/17 10:10:16;;;;;;;;;;;12.90;99.90;;;;;;5073379;28;20336;-23
2022/11/17 10:12:46;;;;;;;;;;;12.90;99.90;;;;;;5074342;28;19931;-22
2022/11/17 10:15:37;;;;;;;;;;;12.90;99.90;;;;;;5073109;28;20011;-21
2022/11/17 10:18:07;;;;;;;;;;;12.90;99.90;;;;;;5073030;28;19909;-21
2022/11/17 10:20:33;;;;;;;;;;;12.90;99.90;;;;;;5073339;28;19962;-22
2022/11/17 10:23:01;;;;;;;;;;;12.90;99.90;;;;;;5038854;28;19958;-24
2022/11/17 10:25:39;;;;;;;;;;;12.90;99.90;;;;;;5073448;28;19908;-27
2022/11/17 10:28:05;;;;;;;;;;;12.90;99.90;;;;;;5073172;28;19909;-29
2022/11/17 10:30:31;;;;;;;;;;;12.90;99.90;;;;;;5073381;28;19955;-23
2022/11/17 10:32:57;;;;;;;;;;;13.00;99.90;;;;;;5071822;28;19920;-21
2022/11/17 10:35:24;;;;;;;;;;;13.00;99.90;;;;;;5072791;28;19917;-25
2022/11/17 10:37:58;;;;;;;;;;;13.00;99.90;;;;;;5072799;28;19909;-23
2022/11/17 10:40:26;;;;;;;;;;;13.00;99.90;;;;;;5056073;28;19908;-23
2022/11/17 10:42:53;;;;;;;;;;;13.00;99.90;;;;;;5073599;28;19921;-23
2022/11/17 10:45:19;;;;;;;;;;;13.00;99.90;;;;;;5074320;28;19908;-23
2022/11/17 10:47:44;;;;;;;;;;;13.00;99.90;;;;;;5073514;28;19973;-23
2022/11/17 10:50:23;;;;;;;;;;;13.00;99.90;;;;;;5073850;28;19908;-23
2022/11/17 10:52:50;;;;;;;;;;;13.00;99.90;;;;;;5073498;28;19908;-27
2022/11/17 10:55:16;;;;;;;;;;;13.10;99.90;;;;;;5073609;28;19913;-28
2022/11/17 10:57:42;;;;;;;;;;;13.10;99.90;;;;;;5074023;28;20385;-29
2022/11/17 11:00:28;;;;;;;;;;;13.20;99.90;;;;;;5073486;28;20366;-23
2022/11/17 11:03:05;;;;;;;;;;;13.20;99.90;;;;;;5072769;28;19909;-22
2022/11/17 11:05:30;;;;;;;;;;;13.30;99.90;;;;;;5073179;28;20000;-23
2022/11/17 11:08:14;;;;;;;;;;;13.30;99.90;;;;;;5072876;28;20374;-22
2022/11/17 11:10:41;;;;;;;;;;;13.40;99.90;;;;;;5076289;28;19999;-22
2022/11/17 11:13:06;;;;;;;;;;;13.40;99.90;;;;;;5075686;28;19908;-23
2022/11/17 11:15:33;;;;;;;;;;;13.50;99.90;;;;;;5076455;28;19916;-28
2022/11/17 11:17:59;;;;;;;;;;;13.50;99.90;;;;;;5075610;28;19913;-24
2022/11/17 11:20:35;;;;;;;;;;;13.50;99.90;;;;;;5076169;28;19920;-23
2022/11/17 11:23:07;;;;;;;;;;;13.50;99.90;;;;;;5076401;28;19908;-25
2022/11/17 11:25:33;;;;;;;;;;;13.50;99.90;;;;;;5075801;28;19912;-24
2022/11/17 11:28:14;;;;;;;;;;;13.50;99.90;;;;;;5074393;28;19924;-24
2022/11/17 11:30:58;;;;;;;;;;;13.50;99.90;;;;;;5057263;28;20250;-24
2022/11/17 11:33:29;;;;;;;;;;;13.50;99.90;;;;;;5076869;28;20326;-23
2022/11/17 11:36:05;;;;;;;;;;;13.50;99.90;;;;;;5075325;28;20417;-24
2022/11/17 11:38:40;;;;;;;;;;;13.50;99.90;;;;;;5075693;28;19909;-27
2022/11/17 11:41:11;;;;;;;;;;;13.50;99.90;;;;;;5075705;28;20329;-22
2022/11/17 11:43:55;;;;;;;;;;;13.40;99.90;;;;;;5076794;28;19909;-23
2022/11/17 11:46:41;;;;;;;;;;;13.50;99.90;;;;;;5076478;28;20305;-23
2022/11/17 11:49:20;;;;;;;;;;;13.50;99.90;;;;;;5043285;28;19908;-23
2022/11/17 11:51:47;;;;;;;;;;;13.50;99.90;;;;;;5076069;28;20302;-25
2022/11/17 11:54:36;;;;;;;;;;;13.60;99.90;;;;;;5075683;28;19924;-23
2022/11/17 11:57:02;;;;;;;;;;;13.60;99.90;;;;;;5067346;28;19917;-24
2022/11/17 11:59:30;;;;;;;;;;;13.60;99.90;;;;;;5075192;28;19933;-24
2022/11/17 12:02:14;;;;;;;;;;;13.70;99.90;;;;;;5075200;28;19909;-23
2022/11/17 12:04:46;;;;;;;;;;;13.70;99.90;;;;;;5075705;28;19908;-28
2022/11/17 12:07:31;;;;;;;;;;;13.70;99.90;;;;;;5075693;28;19913;-22
2022/11/17 12:10:03;;;;;;;;;;;13.70;99.90;;;;;;5057656;28;19909;-23
2022/11/17 12:12:37;;;;;;;;;;;13.80;99.90;;;;;;5057935;28;19915;-24
2022/11/17 12:15:28;;;;;;;;;;;13.80;99.90;;;;;;5058367;28;20325;-22
2022/11/17 12:17:55;;;;;;;;;;;13.80;99.90;;;;;;5074662;28;19909;-24
2022/11/17 12:20:30;;;;;;;;;;;13.80;99.90;;;;;;5056541;28;19913;-21
2022/11/17 12:22:58;;;;;;;;;;;13.80;99.90;;;;;;5076462;28;19909;-24
2022/11/17 12:25:28;;;;;;;;;;;13.80;99.90;;;;;;5074951;28;19912;-22
2022/11/17 12:27:54;;;;;;;;;;;13.80;99.90;;;;;;5074852;28;19913;-25
2022/11/17 12:30:29;;;;;;;;;;;13.80;99.90;;;;;;5074765;28;19908;-22
2022/11/17 12:32:55;;;;;;;;;;;13.80;99.90;;;;;;5075059;28;19923;-23
2022/11/17 12:35:21;;;;;;;;;;;13.80;99.90;;;;;;5038999;28;19939;-23
2022/11/17 12:37:47;;;;;;;;;;;13.80;99.90;;;;;;5073610;28;19909;-22
2022/11/17 12:40:31;;;;;;;;;;;13.70;99.90;;;;;;5073229;28;20459;-23
2022/11/17 12:43:15;;;;;;;;;;;13.70;99.90;;;;;;5055687;28;20278;-23
2022/11/17 12:45:58;;;;;;;;;;;13.70;99.90;;;;;;5073618;28;20374;-23
2022/11/17 12:48:29;;;;;;;;;;;13.80;99.90;;;;;;5055044;28;20416;-23
2022/11/17 12:50:54;;;;;;;;;;;13.80;99.90;;;;;;5073666;28;19913;-27
2022/11/17 12:53:25;;;;;;;;;;;13.80;99.90;;;;;;5073291;28;19928;-29
2022/11/17 12:55:57;;;;;;;;;;;13.80;99.90;;;;;;5073640;28;19913;-25
2022/11/17 12:58:23;;;;;;;;;;;13.80;99.90;;;;;;5072827;28;19916;-24
2022/11/17 13:01:07;;;;;;;;;;;13.80;99.90;;;;;;5073374;28;20263;-24
2022/11/17 13:03:33;;;;;;;;;;;13.80;99.90;;;;;;5073589;28;19914;-23
2022/11/17 13:06:05;;;;;;;;;;;13.80;99.90;;;;;;5074135;28;19915;-21
2022/11/17 13:08:31;;;;;;;;;;;13.80;99.90;;;;;;5073248;28;19908;-23
2022/11/17 13:11:16;;;;;;;;;;;13.80;99.90;;;;;;5073768;28;19915;-20
2022/11/17 13:13:42;;;;;;;;;;;13.80;99.90;;;;;;5054995;28;19915;-23
2022/11/17 13:16:11;;;;;;;;;;;13.80;99.90;;;;;;5073357;28;20017;-24
2022/11/17 13:18:37;;;;;;;;;;;13.80;99.90;;;;;;5072975;28;19909;-23
2022/11/17 13:21:03;;;;;;;;;;;13.80;99.90;;;;;;5072838;28;19958;-23
2022/11/17 13:23:30;;;;;;;;;;;13.80;99.90;;;;;;5073163;28;19991;-23
2022/11/17 13:26:09;;;;;;;;;;;13.80;99.90;;;;;;5073504;28;19913;-23
2022/11/17 13:28:36;;;;;;;;;;;13.80;99.90;;;;;;5072253;28;19914;-24
2022/11/17 13:31:01;;;;;;;;;;;13.80;99.90;;;;;;5054870;28;20366;-23
2022/11/17 13:33:28;;;;;;;;;;;13.90;99.90;;;;;;5072513;28;19909;-23
2022/11/17 13:36:04;;;;;;;;;;;13.80;99.90;;;;;;5073367;28;19912;-24
2022/11/17 13:38:29;;;;;;;;;;;13.80;99.90;;;;;;5072634;28;20294;-23
2022/11/17 13:40:55;;;;;;;;;;;13.90;99.90;;;;;;5072908;28;19908;-23
2022/11/17 13:43:22;;;;;;;;;;;13.90;99.90;;;;;;5073080;28;19987;-23
2022/11/17 13:45:48;;;;;;;;;;;13.80;99.90;;;;;;5073504;28;19913;-23
2022/11/17 13:48:32;;;;;;;;;;;13.80;99.90;;;;;;5072869;28;19937;-22
2022/11/17 13:51:17;;;;;;;;;;;13.80;99.90;;;;;;5073286;28;19909;-23
2022/11/17 13:53:44;;;;;;;;;;;13.80;99.90;;;;;;5073367;28;20148;-24
2022/11/17 13:56:29;;;;;;;;;;;13.80;99.90;;;;;;5055109;28;19909;-24
2022/11/17 13:58:55;;;;;;;;;;;13.80;99.90;;;;;;5072494;28;19999;-23
2022/11/17 14:01:23;;;;;;;;;;;13.70;99.90;;;;;;5054855;28;20015;-27
2022/11/17 14:03:49;;;;;;;;;;;13.70;99.90;;;;;;5054330;28;19908;-28
2022/11/17 14:06:15;;;;;;;;;;;13.70;99.90;;;;;;5072765;28;19954;-25
2022/11/17 14:08:42;;;;;;;;;;;13.70;99.90;;;;;;5054239;28;19916;-31
2022/11/17 14:11:10;;;;;;;;;;;13.70;99.90;;;;;;5072128;28;20367;-27
2022/11/17 14:13:42;;;;;;;;;;;13.70;99.90;;;;;;5072858;28;20291;-23
2022/11/17 14:16:34;;;;;;;;;;;13.60;99.90;;;;;;5072364;28;19909;-26
2022/11/17 14:19:04;;;;;;;;;;;13.60;99.90;;;;;;5069638;28;19913;-30
2022/11/17 14:21:31;;;;;;;;;;;13.60;99.90;;;;;;5073582;28;19908;-27
2022/11/17 14:24:02;;;;;;;;;;;13.50;99.90;;;;;;5072826;28;20293;-24
2022/11/17 14:26:27;;;;;;;;;;;13.50;99.90;;;;;;5072521;28;19916;-23
2022/11/17 14:28:54;;;;;;;;;;;13.50;99.90;;;;;;5072216;28;19912;-21
2022/11/17 14:31:19;;;;;;;;;;;13.50;99.90;;;;;;5054968;28;19993;-23
2022/11/17 14:33:45;;;;;;;;;;;13.50;99.90;;;;;;5054178;28;19912;-25
2022/11/17 14:36:12;;;;;;;;;;;13.50;99.90;;;;;;5073458;28;19940;-22
2022/11/17 14:38:38;;;;;;;;;;;13.50;99.90;;;;;;5071699;28;19909;-24
2022/11/17 14:41:03;;;;;;;;;;;13.50;99.90;;;;;;5072719;28;19913;-27
2022/11/17 14:43:29;;;;;;;;;;;13.50;99.90;;;;;;5074108;28;19978;-32
2022/11/17 14:45:54;;;;;;;;;;;13.40;99.90;;;;;;5076232;28;19915;-27
2022/11/17 14:48:21;;;;;;;;;;;13.50;99.90;;;;;;5075570;28;20294;-24
2022/11/17 14:50:47;;;;;;;;;;;13.50;99.90;;;;;;5058518;28;19920;-23
2022/11/17 14:53:13;;;;;;;;;;;13.50;99.90;;;;;;5076680;28;19912;-22